This is the latest recevied weather packets stored in our database for station/object NF3Q. If no packets are shown the sender has not sent any weather packets the latest 10 day(s).
| Time | Temp. | Humidity | Pressure | Rain* | Wind** | Luminosity | Snow |
|---|---|---|---|---|---|---|---|
| 1777493719 | 16.11° C | 88% | 1005.9 hPa | 2.03 mm | - | - | - |
| 1777489506 | 16.67° C | 91% | 1005.5 hPa | 8.13 mm | - | - | - |
| 1777488605 | 16.67° C | 91% | 1005.3 hPa | 5.33 mm | - | - | - |
| 1777486207 | 17.78° C | 87% | 1005.4 hPa | 0.25 mm | - | - | - |
| 1777484725 | 18.33° C | 85% | 1005.8 hPa | 0 mm | - | - | - |
| 1777483834 | 18.33° C | 85% | 1006.1 hPa | 0 mm | - | - | - |
| 1777483511 | 18.33° C | 87% | 1006.1 hPa | 0 mm | - | - | - |
| 1777482604 | 17.78° C | 87% | 1006.7 hPa | 0 mm | - | - | - |
| 1777482304 | 17.78° C | 88% | 1006.8 hPa | 0 mm | - | - | - |
| 1777480807 | 17.78° C | 89% | 1007.3 hPa | 0.51 mm | - | - | - |
| 1777480231 | 17.22° C | 92% | 1007.8 hPa | 0.51 mm | - | - | - |
| 1777476626 | 15° C | 94% | 1008.8 hPa | 0.25 mm | - | - | - |
| 1777475112 | 13.89° C | 93% | 1009.4 hPa | 0.25 mm | - | - | - |
| 1777473614 | 13.89° C | 92% | 1009.4 hPa | 1.02 mm | - | - | - |
| 1777470913 | 13.33° C | 92% | 1009.5 hPa | 6.1 mm | - | - | - |
| 1777470336 | 13.33° C | 92% | 1010.2 hPa | 5.59 mm | - | - | - |
| 1777469418 | 13.33° C | 90% | 1011 hPa | 3.81 mm | - | - | - |
| 1777468807 | 13.33° C | 90% | 1011.6 hPa | 2.29 mm | - | - | - |
| 1777468207 | 13.33° C | 89% | 1011.3 hPa | 0.76 mm | - | - | - |
| 1777467911 | 13.33° C | 89% | 1011.2 hPa | 0.51 mm | - | - | - |
| 1777467626 | 13.33° C | 88% | 1011.1 hPa | 0.25 mm | - | - | - |
| 1777467312 | 13.33° C | 88% | 1010.7 hPa | 0 mm | - | - | - |
| 1777466108 | 13.33° C | 87% | 1010.4 hPa | 0 mm | - | - | - |
| 1777465505 | 13.33° C | 88% | 1010.2 hPa | 0 mm | - | - | - |
| 1777465209 | 13.33° C | 88% | 1010.4 hPa | 0 mm | - | - | - |
* Rain latest hour (hover to see other rain measurements)
** Current wind speed in m/s (hover to see current wind gust speed)